Time;durP1;ratioP1;P1;durP2;ratioP2;P2;SDS_P1;SDS_P2;PMS_P1;PMS_P2;Temp;Humidity;BMP_temperature;BMP_pressure;BME280_temperature;BME280_humidity;BME280_pressure;Samples;Min_cycle;Max_cycle;Signal;HPM_P1;HPM_P2
2022/02/02 00:00:18;;;;;;;19.75;18.40;;;;;;;0.32;100.00;97227.16;2105545;28;20174;-78
2022/02/02 00:01:31;;;;;;;20.02;18.63;;;;;;;0.34;100.00;97225.03;2105902;28;20199;-78
2022/02/02 00:02:44;;;;;;;20.98;19.23;;;;;;;0.34;100.00;97221.63;2105729;28;20190;-78
2022/02/02 00:03:52;;;;;;;19.20;17.70;;;;;;;0.33;100.00;97212.19;2105883;28;20607;-78
2022/02/02 00:05:11;;;;;;;19.23;17.73;;;;;;;0.35;100.00;97208.25;2105380;28;20250;-78
2022/02/02 00:06:19;;;;;;;19.20;17.80;;;;;;;0.40;100.00;97207.41;2102176;28;20230;-78
2022/02/02 00:07:33;;;;;;;19.35;17.85;;;;;;;0.39;100.00;97219.75;2096965;28;20186;-78
2022/02/02 00:08:49;;;;;;;21.33;19.73;;;;;;;0.36;100.00;97215.06;2096658;28;20205;-79
2022/02/02 00:10:03;;;;;;;19.88;18.48;;;;;;;0.40;100.00;97220.53;2096861;28;20186;-78
2022/02/02 00:12:48;;;;;;;19.65;18.15;;;;;;;0.33;100.00;97214.81;2096529;28;20548;-78
2022/02/02 00:13:58;;;;;;;19.65;18.25;;;;;;;0.31;100.00;97212.47;2089851;28;20603;-78
2022/02/02 00:15:18;;;;;;;19.90;18.50;;;;;;;0.35;100.00;97220.56;2089636;28;20187;-79
2022/02/02 00:16:40;;;;;;;22.02;20.25;;;;;;;0.43;100.00;97212.09;2090893;28;20560;-79
2022/02/02 00:17:55;;;;;;;21.30;19.58;;;;;;;0.41;100.00;97219.47;2096862;28;20561;-79
2022/02/02 00:19:06;;;;;;;20.50;18.90;;;;;;;0.36;100.00;97211.66;2096169;28;20244;-79
2022/02/02 00:20:18;;;;;;;21.10;19.50;;;;;;;0.28;100.00;97220.91;2096666;28;20221;-79
2022/02/02 00:21:24;;;;;;;21.77;20.17;;;;;;;0.30;100.00;97216.16;2099959;28;20228;-79
2022/02/02 00:22:37;;;;;;;20.77;19.27;;;;;;;0.29;100.00;97222.47;2097322;28;20627;-80
2022/02/02 00:23:43;;;;;;;20.77;19.30;;;;;;;0.25;100.00;97211.72;2105175;28;20223;-79
2022/02/02 00:25:07;;;;;;;20.88;19.27;;;;;;;0.24;100.00;97219.88;2105531;28;20567;-79
2022/02/02 00:26:19;;;;;;;21.13;19.42;;;;;;;0.28;100.00;97220.91;2105905;28;20190;-80
2022/02/02 00:27:23;;;;;;;20.98;19.45;;;;;;;0.27;100.00;97224.59;2104877;28;20202;-81
2022/02/02 00:28:29;;;;;;;21.77;20.08;;;;;;;0.28;100.00;97221.69;2096876;28;20281;-80
2022/02/02 00:29:42;;;;;;;20.50;18.80;;;;;;;0.32;100.00;97219.28;2097323;28;20183;-80
2022/02/02 00:30:47;;;;;;;21.00;19.40;;;;;;;0.26;100.00;97223.00;2104993;28;20194;-80
2022/02/02 00:32:01;;;;;;;20.85;19.23;;;;;;;0.24;100.00;97214.63;2105648;28;20170;-80
2022/02/02 00:33:18;;;;;;;21.75;20.15;;;;;;;0.25;100.00;97229.31;2105020;28;20198;-80
2022/02/02 00:34:26;;;;;;;21.80;20.30;;;;;;;0.18;100.00;97219.16;2098355;28;20202;-80
2022/02/02 00:35:33;;;;;;;22.30;20.50;;;;;;;0.21;100.00;97215.97;2097585;28;20198;-80
2022/02/02 00:36:43;;;;;;;21.55;20.05;;;;;;;0.21;100.00;97215.97;2098870;28;20300;-80
2022/02/02 00:37:46;;;;;;;21.25;19.75;;;;;;;0.25;100.00;97218.81;2097241;28;20657;-81
2022/02/02 00:38:48;;;;;;;20.92;19.42;;;;;;;0.26;100.00;97215.13;2097052;28;20644;-81
2022/02/02 00:39:53;;;;;;;20.98;19.50;;;;;;;0.26;100.00;97212.50;2097024;28;20194;-81
2022/02/02 00:40:56;;;;;;;20.52;18.95;;;;;;;0.22;100.00;97211.50;2097372;28;20182;-81
2022/02/02 00:42:02;;;;;;;20.23;18.83;;;;;;;0.21;100.00;97212.56;2097136;28;20273;-82
2022/02/02 00:43:06;;;;;;;21.15;19.60;;;;;;;0.16;100.00;97204.72;2097236;28;20401;-82
2022/02/02 00:44:10;;;;;;;19.83;18.42;;;;;;;0.18;100.00;97203.41;2096259;28;20570;-82
2022/02/02 00:45:17;;;;;;;21.15;19.60;;;;;;;0.21;100.00;97204.69;2096497;28;20190;-83
2022/02/02 00:46:33;;;;;;;20.90;19.30;;;;;;;0.17;100.00;97201.81;2097180;28;20198;-82
2022/02/02 00:47:40;;;;;;;21.55;19.95;;;;;;;0.18;100.00;97202.63;2096874;28;20202;-82
2022/02/02 00:48:48;;;;;;;21.35;19.83;;;;;;;0.21;100.00;97213.34;2097201;28;20183;-82
2022/02/02 00:49:56;;;;;;;21.50;20.10;;;;;;;0.24;100.00;97219.88;2097335;28;20617;-82
2022/02/02 00:50:59;;;;;;;20.88;19.45;;;;;;;0.22;100.00;97203.63;2090672;28;20619;-81
2022/02/02 00:52:03;;;;;;;21.70;20.20;;;;;;;0.21;100.00;97192.38;2083288;28;20310;-82
2022/02/02 00:53:10;;;;;;;20.85;19.45;;;;;;;0.18;100.00;97206.03;2090939;28;20287;-82
2022/02/02 00:54:18;;;;;;;21.05;19.65;;;;;;;0.13;100.00;97194.78;2091280;28;20264;-82
2022/02/02 00:55:22;;;;;;;21.70;19.92;;;;;;;0.11;100.00;97204.78;2092056;28;20211;-82
2022/02/02 00:56:34;;;;;;;20.63;19.17;;;;;;;0.07;100.00;97185.38;2091350;28;20186;-82
2022/02/02 00:57:40;;;;;;;20.73;19.20;;;;;;;0.15;100.00;97201.31;2091599;28;20289;-82
2022/02/02 00:58:46;;;;;;;20.42;18.83;;;;;;;0.13;100.00;97202.66;2091189;28;20191;-82
2022/02/02 00:59:47;;;;;;;20.55;18.95;;;;;;;0.13;100.00;97205.28;2091165;28;20231;-82
2022/02/02 01:00:51;;;;;;;20.65;19.15;;;;;;;0.17;100.00;97206.28;2082833;28;20557;-82
2022/02/02 01:01:55;;;;;;;19.58;18.27;;;;;;;0.15;100.00;97211.03;2083740;28;20255;-81
2022/02/02 01:03:00;;;;;;;20.15;18.73;;;;;;;0.17;100.00;97206.28;2083639;28;20222;-81
2022/02/02 01:04:05;;;;;;;20.33;18.83;;;;;;;0.21;100.00;97200.22;2091397;28;20195;-81
2022/02/02 01:05:08;;;;;;;20.60;19.20;;;;;;;0.17;100.00;97199.19;2090311;28;20607;-82
2022/02/02 01:06:18;;;;;;;20.08;18.60;;;;;;;0.21;100.00;97199.44;2090588;28;20213;-81
2022/02/02 01:07:30;;;;;;;19.52;18.23;;;;;;;0.25;100.00;97195.22;2091701;28;20199;-81
2022/02/02 01:08:54;;;;;;;19.85;18.55;;;;;;;0.22;100.00;97203.63;2091975;28;20190;-82
2022/02/02 01:10:06;;;;;;;20.40;18.90;;;;;;;0.21;100.00;97202.06;2091733;28;20179;-80
2022/02/02 01:11:34;;;;;;;20.52;18.98;;;;;;;0.20;100.00;97192.66;2091393;28;20512;-80
2022/02/02 01:12:52;;;;;;;20.52;19.05;;;;;;;0.20;100.00;97195.25;2090545;28;20618;-80
2022/02/02 01:15:31;;;;;;;19.88;18.45;;;;;;;0.22;100.00;97198.38;2090785;28;20568;-80
2022/02/02 01:16:40;;;;;;;20.15;18.80;;;;;;;0.20;100.00;97193.44;2089922;28;20215;-80
2022/02/02 01:19:03;;;;;;;21.13;19.73;;;;;;;0.25;100.00;97185.50;2085602;28;20285;-80
2022/02/02 01:20:27;;;;;;;20.73;19.27;;;;;;;0.23;100.00;97186.84;2091537;28;20199;-80
2022/02/02 01:21:57;;;;;;;20.10;18.60;;;;;;;0.22;100.00;97187.91;2090973;28;20230;-80
2022/02/02 01:28:27;;;;;;;23.45;21.95;;;;;;;0.15;100.00;97182.19;2090921;28;20218;-80
2022/02/02 01:29:31;;;;;;;21.10;19.60;;;;;;;0.16;100.00;97194.22;2083504;28;20633;-80
2022/02/02 01:30:33;;;;;;;20.45;19.05;;;;;;;0.18;100.00;97194.75;2090763;28;20187;-79
2022/02/02 01:31:35;;;;;;;20.13;18.55;;;;;;;0.24;100.00;97196.28;2091274;28;20189;-79
2022/02/02 01:32:41;;;;;;;20.00;18.60;;;;;;;0.22;100.00;97187.91;2090510;28;20203;-79
2022/02/02 01:33:49;;;;;;;20.27;18.88;;;;;;;0.23;100.00;97186.84;2090661;28;20225;-79
2022/02/02 01:34:56;;;;;;;21.80;20.25;;;;;;;0.23;100.00;97192.88;2091165;28;20562;-79
2022/02/02 01:36:02;;;;;;;21.10;19.70;;;;;;;0.25;100.00;97189.97;2090667;28;20191;-78
2022/02/02 01:37:04;;;;;;;21.23;19.83;;;;;;;0.21;100.00;97189.75;2091474;28;20178;-79
2022/02/02 01:38:07;;;;;;;23.05;21.55;;;;;;;0.17;100.00;97191.34;2090188;28;20221;-79
2022/02/02 01:39:18;;;;;;;22.10;20.50;;;;;;;0.15;100.00;97197.91;2090305;28;20276;-79
2022/02/02 01:40:28;;;;;;;22.85;21.25;;;;;;;0.15;100.00;97196.06;2090872;28;20715;-80
2022/02/02 01:41:40;;;;;;;21.00;19.40;;;;;;;0.11;100.00;97195.06;2090701;28;20190;-80
2022/02/02 01:42:53;;;;;;;21.77;20.08;;;;;;;0.11;100.00;97189.03;2091089;28;20226;-80
2022/02/02 01:44:09;;;;;;;20.58;19.08;;;;;;;0.14;100.00;97183.25;2090021;28;20202;-80
2022/02/02 01:45:17;;;;;;;22.13;20.55;;;;;;;0.12;100.00;97177.50;2090807;28;20213;-80
2022/02/02 01:46:21;;;;;;;22.20;20.52;;;;;;;0.16;100.00;97181.13;2090870;28;20229;-81
2022/02/02 01:47:34;;;;;;;20.02;18.70;;;;;;;0.10;100.00;97171.75;2090732;28;20214;-81
2022/02/02 01:48:45;;;;;;;20.10;18.60;;;;;;;0.02;100.00;97175.75;2090408;28;20586;-81
2022/02/02 01:50:10;;;;;;;21.98;20.15;;;;;;;0.01;100.00;97179.44;2090468;28;20583;-80
2022/02/02 01:51:33;;;;;;;21.63;20.00;;;;;;;0.02;100.00;97173.13;2090223;28;20638;-81
2022/02/02 01:52:54;;;;;;;22.30;20.60;;;;;;;0.02;100.00;97177.59;2090994;28;20207;-82
2022/02/02 01:54:14;;;;;;;22.00;20.30;;;;;;;-0.02;100.00;97174.72;2091373;28;20182;-81
2022/02/02 01:55:28;;;;;;;21.00;19.40;;;;;;;0.02;100.00;97180.97;2090228;28;20253;-81
2022/02/02 01:56:37;;;;;;;21.73;20.23;;;;;;;0.01;100.00;97174.19;2083638;28;20199;-81
2022/02/02 01:57:56;;;;;;;22.60;21.00;;;;;;;0.03;100.00;97168.66;2090564;28;20191;-81
2022/02/02 01:59:04;;;;;;;22.27;20.67;;;;;;;0.06;100.00;97174.13;2090708;28;20210;-80
2022/02/02 02:00:11;;;;;;;22.40;20.70;;;;;;;0.08;100.00;97184.34;2090654;28;20206;-80
2022/02/02 02:01:21;;;;;;;22.65;20.95;;;;;;;0.10;100.00;97187.47;2091158;28;20210;-80
2022/02/02 02:02:27;;;;;;;24.00;22.10;;;;;;;0.11;100.00;97175.94;2090411;28;20171;-80
2022/02/02 02:03:32;;;;;;;24.02;22.33;;;;;;;0.15;100.00;97179.56;2090214;28;20195;-80
2022/02/02 02:04:35;;;;;;;24.20;22.50;;;;;;;0.17;100.00;97183.47;2090377;28;20194;-80
2022/02/02 02:05:37;;;;;;;25.52;23.67;;;;;;;0.22;100.00;97187.91;2091124;28;20274;-80
2022/02/02 02:06:39;;;;;;;24.75;23.10;;;;;;;0.23;100.00;97182.38;2090304;28;20223;-80
2022/02/02 02:07:47;;;;;;;23.88;22.15;;;;;;;0.24;100.00;97198.88;2090433;28;20270;-78
2022/02/02 02:08:54;;;;;;;24.02;22.23;;;;;;;0.28;100.00;97195.47;2090982;28;20164;-79
2022/02/02 02:10:01;;;;;;;25.83;23.92;;;;;;;0.36;100.00;97185.44;2090820;28;20606;-79
2022/02/02 02:11:06;;;;;;;22.40;20.70;;;;;;;0.35;100.00;97192.53;2089683;28;20230;-78
2022/02/02 02:12:11;;;;;;;21.30;19.70;;;;;;;0.37;100.00;97187.00;2090432;28;20176;-81
2022/02/02 02:13:17;;;;;;;22.85;20.95;;;;;;;0.35;100.00;97202.22;2090962;28;20244;-81
2022/02/02 02:15:50;;;;;;;21.80;20.20;;;;;;;0.42;100.00;97164.09;2085526;28;20629;-81
2022/02/02 02:16:55;;;;;;;22.90;21.20;;;;;;;0.49;100.00;97169.03;2082343;28;20602;-82
2022/02/02 02:18:00;;;;;;;22.70;20.90;;;;;;;0.51;100.00;97172.94;2090552;28;20183;-80
2022/02/02 02:19:02;;;;;;;21.45;19.85;;;;;;;0.50;100.00;97171.38;2090822;28;20191;-79
2022/02/02 02:20:08;;;;;;;20.90;19.30;;;;;;;0.56;100.00;97196.53;2090089;28;20578;-79
2022/02/02 02:21:17;;;;;;;21.67;19.80;;;;;;;0.59;100.00;97204.88;2081983;28;20589;-79
2022/02/02 02:22:29;;;;;;;21.75;20.10;;;;;;;0.53;100.00;97191.84;2083003;28;20199;-79
2022/02/02 02:23:35;;;;;;;22.58;20.95;;;;;;;0.51;100.00;97209.66;2083951;28;20546;-79
2022/02/02 02:24:44;;;;;;;24.00;22.08;;;;;;;0.57;100.00;97194.69;2082399;28;20196;-79
2022/02/02 02:25:48;;;;;;;22.08;20.38;;;;;;;0.58;100.00;97193.63;2083197;28;20207;-79
2022/02/02 02:26:53;;;;;;;22.45;20.60;;;;;;;0.68;100.00;97192.72;2082085;28;20279;-79
2022/02/02 02:28:07;;;;;;;21.92;20.10;;;;;;;0.66;100.00;97185.13;2090535;28;20194;-79
2022/02/02 02:30:43;;;;;;;22.38;20.70;;;;;;;0.67;100.00;97180.66;2084562;28;20678;-79
2022/02/02 02:31:58;;;;;;;23.02;21.20;;;;;;;0.68;100.00;97184.84;2084342;28;20215;-79
2022/02/02 02:33:26;;;;;;;22.10;20.02;;;;;;;0.73;100.00;97185.59;2083489;28;20674;-79
2022/02/02 02:34:41;;;;;;;22.92;21.08;;;;;;;0.75;100.00;97183.47;2090655;28;20199;-79
2022/02/02 02:36:23;;;;;;;21.80;20.20;;;;;;;0.81;100.00;97178.97;2090089;28;20190;-79
2022/02/02 02:37:42;;;;;;;21.65;19.85;;;;;;;0.83;100.00;97179.47;2098310;28;20222;-79
2022/02/02 02:40:26;;;;;;;23.60;21.90;;;;;;;0.82;100.00;97180.53;2098087;28;20587;-79
2022/02/02 02:56:29;;;;;;;22.75;21.00;;;;;;;0.98;100.00;97192.44;2090155;28;20194;-79
2022/02/02 02:57:43;;;;;;;22.42;20.65;;;;;;;0.97;100.00;97190.88;2090712;28;20244;-79
2022/02/02 02:59:00;;;;;;;20.67;19.17;;;;;;;0.98;100.00;97195.06;2089784;28;20199;-79
2022/02/02 03:00:22;;;;;;;21.45;19.75;;;;;;;1.00;100.00;97195.53;2089977;28;20694;-79
2022/02/02 03:01:46;;;;;;;21.20;19.70;;;;;;;0.97;100.00;97193.50;2090437;28;20652;-79
2022/02/02 03:14:28;;;;;;;23.30;21.60;;;;;;;1.19;100.00;97213.19;2098817;28;20674;-79
2022/02/02 03:30:17;;;;;;;22.33;20.73;;;;;;;1.25;100.00;97218.13;2098711;28;20240;-78
2022/02/02 03:31:30;;;;;;;24.27;22.58;;;;;;;1.25;100.00;97227.84;2097986;28;20269;-78
2022/02/02 03:33:02;;;;;;;24.92;23.13;;;;;;;1.28;100.00;97209.66;2098253;28;20676;-77
2022/02/02 03:49:21;;;;;;;23.77;22.02;;;;;;;1.31;100.00;97211.75;2098682;28;20196;-78
2022/02/02 03:49:35;;;;;;;22.83;21.10;;;;;;;1.46;100.00;97212.59;2098487;28;20251;-78
2022/02/02 03:52:34;;;;;;;23.58;21.58;;;;;;;1.47;100.00;97228.09;2077208;28;20198;-77
2022/02/02 03:55:06;;;;;;;24.15;22.35;;;;;;;1.55;100.00;97208.28;2089915;28;20567;-77
2022/02/02 03:57:53;;;;;;;21.83;19.98;;;;;;;1.58;100.00;97211.16;2088477;28;20199;-77
2022/02/02 04:00:33;;;;;;;23.00;21.10;;;;;;;1.55;100.00;97216.94;2087796;28;20295;-77
2022/02/02 04:01:51;;;;;;;22.25;20.55;;;;;;;1.59;100.00;97211.94;2089571;28;20256;-77
2022/02/02 04:04:38;;;;;;;22.88;20.98;;;;;;;1.58;100.00;97216.41;2064757;28;20585;-77
2022/02/02 04:05:42;;;;;;;22.67;20.75;;;;;;;1.58;100.00;97210.38;2066969;28;20185;-76
2022/02/02 04:06:58;;;;;;;22.45;20.65;;;;;;;1.58;100.00;97218.25;2089327;28;20677;-76
2022/02/02 04:08:18;;;;;;;22.05;20.15;;;;;;;1.59;100.00;97211.94;2089968;28;20190;-76
2022/02/02 04:09:21;;;;;;;22.25;20.55;;;;;;;1.57;100.00;97214.84;2090260;28;20182;-77
2022/02/02 04:10:25;;;;;;;23.20;21.50;;;;;;;1.59;100.00;97225.84;2089528;28;20631;-77
2022/02/02 04:11:37;;;;;;;23.67;21.88;;;;;;;1.62;100.00;97212.13;2089835;28;20206;-77
2022/02/02 04:12:50;;;;;;;22.30;20.45;;;;;;;1.65;100.00;97216.03;2090469;28;20193;-76
2022/02/02 04:52:11;;;;;;;23.17;21.15;;;;;;;1.75;100.00;97225.66;2098984;28;20328;-77
2022/02/02 04:54:45;;;;;;;24.52;22.08;;;;;;;1.83;100.00;97232.91;2093727;28;20194;-76
2022/02/02 04:55:54;;;;;;;23.02;21.20;;;;;;;1.84;100.00;97232.63;2092667;28;20699;-77
2022/02/02 04:58:41;;;;;;;22.55;20.05;;;;;;;1.89;100.00;97227.28;2099134;28;20198;-76
2022/02/02 04:59:57;;;;;;;22.40;20.10;;;;;;;1.87;100.00;97239.16;2092650;28;20206;-76
2022/02/02 05:03:54;;;;;;;22.05;19.85;;;;;;;1.87;100.00;97254.94;2099407;28;20590;-77
2022/02/02 05:06:31;;;;;;;24.23;21.83;;;;;;;1.87;100.00;97254.94;2077731;28;20224;-75
2022/02/02 05:07:39;;;;;;;23.20;21.10;;;;;;;1.89;100.00;97253.56;2090355;28;20202;-76
2022/02/02 05:08:55;;;;;;;24.15;21.80;;;;;;;1.89;100.00;97237.78;2090955;28;20304;-77
2022/02/02 05:10:06;;;;;;;23.98;21.55;;;;;;;1.87;100.00;97245.19;2091315;28;20727;-76
2022/02/02 05:11:31;;;;;;;25.02;22.92;;;;;;;1.86;100.00;97237.59;2091540;28;20175;-76
2022/02/02 05:15:53;;;;;;;23.80;21.90;;;;;;;1.80;100.00;97246.59;2090618;28;20202;-76
2022/02/02 05:18:46;;;;;;;24.23;21.75;;;;;;;1.82;100.00;97254.97;2083911;28;20385;-76
2022/02/02 05:21:37;;;;;;;23.83;21.45;;;;;;;1.72;100.00;97260.38;2088077;28;20307;-77
2022/02/02 05:41:23;;;;;;;27.90;25.60;;;;;;;1.57;100.00;97279.75;2105584;28;20201;-76
2022/02/02 05:43:05;;;;;;;28.55;26.25;;;;;;;1.56;100.00;97276.31;2105597;28;20208;-76
2022/02/02 05:49:42;;;;;;;23.77;21.88;;;;;;;1.38;100.00;97290.97;2105847;28;20178;-76
2022/02/02 05:52:07;;;;;;;23.45;21.30;;;;;;;1.37;100.00;97304.41;2098460;28;20212;-76
2022/02/02 05:53:12;;;;;;;23.25;20.88;;;;;;;1.37;100.00;97280.75;2096673;28;20217;-77
2022/02/02 05:54:18;;;;;;;23.38;21.27;;;;;;;1.39;100.00;97283.88;2097455;28;20198;-76
2022/02/02 05:55:21;;;;;;;24.20;21.85;;;;;;;1.39;100.00;97283.88;2097018;28;20202;-75
2022/02/02 05:56:33;;;;;;;23.83;21.73;;;;;;;1.37;100.00;97293.91;2097417;28;20194;-76
2022/02/02 05:57:41;;;;;;;23.15;20.92;;;;;;;1.34;100.00;97283.94;2105230;28;20635;-75
2022/02/02 05:58:48;;;;;;;23.92;21.83;;;;;;;1.37;100.00;97293.91;2105176;28;20556;-75
2022/02/02 05:59:50;;;;;;;24.77;22.40;;;;;;;1.39;100.00;97283.88;2105401;28;20533;-76
2022/02/02 06:00:55;;;;;;;25.40;22.75;;;;;;;1.42;100.00;97289.38;2105679;28;20189;-76
2022/02/02 06:02:02;;;;;;;25.23;23.00;;;;;;;1.39;100.00;97295.19;2105578;28;20671;-76
2022/02/02 06:03:10;;;;;;;30.35;27.85;;;;;;;1.42;100.00;97296.47;2105642;28;20194;-76
2022/02/02 06:04:18;;;;;;;28.77;26.05;;;;;;;1.43;100.00;97298.03;2105468;28;20210;-76
2022/02/02 06:05:22;;;;;;;28.25;25.70;;;;;;;1.42;100.00;97285.97;2104774;28;20686;-76
2022/02/02 06:06:27;;;;;;;27.75;25.35;;;;;;;1.46;100.00;97305.34;2096367;28;20308;-76
2022/02/02 06:07:33;;;;;;;29.02;26.20;;;;;;;1.51;100.00;97286.91;2105276;28;20170;-76
2022/02/02 06:08:36;;;;;;;31.08;28.00;;;;;;;1.53;100.00;97290.03;2105738;28;20247;-76
2022/02/02 06:09:49;;;;;;;31.20;28.60;;;;;;;1.50;100.00;97298.50;2105594;28;20205;-76
2022/02/02 06:10:51;;;;;;;33.78;30.90;;;;;;;1.52;100.00;97313.97;2105657;28;20200;-76
2022/02/02 06:12:01;;;;;;;31.67;28.88;;;;;;;1.56;100.00;97292.09;2105530;28;20554;-76
2022/02/02 06:13:02;;;;;;;26.38;24.17;;;;;;;1.57;100.00;97303.41;2105707;28;20257;-76
2022/02/02 06:14:05;;;;;;;27.50;24.80;;;;;;;1.55;100.00;97300.25;2105663;28;20190;-77
2022/02/02 06:15:14;;;;;;;26.38;23.90;;;;;;;1.55;100.00;97302.88;2113316;28;20968;-77
2022/02/02 06:16:17;;;;;;;27.65;23.48;;;;;;;1.53;100.00;97297.13;2105052;28;20243;-77
2022/02/02 06:17:20;;;;;;;28.63;26.02;;;;;;;1.51;100.00;97300.06;2097098;28;20672;-77
2022/02/02 06:18:29;;;;;;;29.30;26.23;;;;;;;1.54;100.00;97296.06;2105026;28;20182;-76
2022/02/02 06:19:37;;;;;;;29.15;26.35;;;;;;;1.52;100.00;97300.84;2105499;28;20247;-77
2022/02/02 06:20:45;;;;;;;28.08;25.27;;;;;;;1.54;100.00;97299.47;2104822;28;20197;-76
2022/02/02 06:21:55;;;;;;;26.33;24.08;;;;;;;1.58;100.00;97318.13;2097757;28;20221;-76
2022/02/02 06:23:01;;;;;;;27.95;25.42;;;;;;;1.59;100.00;97306.53;2104956;28;20201;-77
2022/02/02 06:24:08;;;;;;;29.88;27.10;;;;;;;1.60;100.00;97305.47;2113029;28;20237;-76
2022/02/02 06:25:23;;;;;;;33.03;29.98;;;;;;;1.61;100.00;97301.78;2112481;28;20200;-76
2022/02/02 06:26:28;;;;;;;30.08;27.27;;;;;;;1.65;100.00;97300.13;2105466;28;20197;-76
2022/02/02 06:27:34;;;;;;;31.30;28.25;;;;;;;1.68;100.00;97321.41;2104744;28;20209;-76
2022/02/02 06:28:37;;;;;;;27.33;24.48;;;;;;;1.68;100.00;97318.78;2104837;28;20223;-76
2022/02/02 06:29:47;;;;;;;27.42;24.80;;;;;;;1.67;100.00;97311.97;2105387;28;20186;-76
2022/02/02 06:30:52;;;;;;;33.25;30.27;;;;;;;1.69;100.00;97328.22;2105580;28;20185;-76
2022/02/02 06:31:55;;;;;;;29.50;27.13;;;;;;;1.74;100.00;97314.25;2105636;28;20193;-77
2022/02/02 06:33:05;;;;;;;31.40;27.77;;;;;;;1.74;100.00;97314.25;2105046;28;20214;-77
2022/02/02 06:34:12;;;;;;;29.73;26.73;;;;;;;1.69;100.00;97316.94;2097595;28;20206;-77
2022/02/02 06:35:14;;;;;;;30.25;27.25;;;;;;;1.69;100.00;97316.94;2101887;28;20628;-77
2022/02/02 06:36:16;;;;;;;30.17;26.77;;;;;;;1.70;100.00;97318.50;2102675;28;20308;-77
2022/02/02 06:37:18;;;;;;;30.90;28.10;;;;;;;1.72;100.00;97319.00;2108134;28;20217;-77
2022/02/02 06:38:20;;;;;;;29.08;26.20;;;;;;;1.72;100.00;97316.34;2108147;28;20193;-77
2022/02/02 06:39:24;;;;;;;32.50;29.65;;;;;;;1.73;100.00;97319.78;2108215;28;20185;-77
2022/02/02 06:40:29;;;;;;;32.70;29.90;;;;;;;1.73;100.00;97331.06;2107903;28;20225;-77
2022/02/02 06:41:38;;;;;;;33.35;30.60;;;;;;;1.78;100.00;97335.50;2108203;28;20221;-77
2022/02/02 06:42:41;;;;;;;27.27;22.75;;;;;;;1.77;100.00;97345.22;2107824;28;20246;-77
2022/02/02 06:43:46;;;;;;;25.88;23.33;;;;;;;1.80;100.00;97336.00;2107488;28;20193;-76
2022/02/02 06:44:49;;;;;;;26.30;24.10;;;;;;;1.78;100.00;97332.88;2108340;28;20174;-76
2022/02/02 06:45:54;;;;;;;27.58;24.88;;;;;;;1.79;100.00;97326.53;2108121;28;20190;-76
2022/02/02 06:47:01;;;;;;;27.60;25.10;;;;;;;1.78;100.00;97330.25;2107407;28;20206;-77
2022/02/02 06:48:05;;;;;;;24.20;22.00;;;;;;;1.78;100.00;97325.75;2099666;28;20233;-77
2022/02/02 06:49:10;;;;;;;24.02;21.60;;;;;;;1.77;100.00;97345.22;2099616;28;20228;-77
2022/02/02 06:50:17;;;;;;;25.20;22.70;;;;;;;1.78;100.00;97335.50;2107536;28;20198;-77
2022/02/02 06:51:32;;;;;;;24.80;22.40;;;;;;;1.80;100.00;97336.78;2107616;28;20209;-77
2022/02/02 06:52:45;;;;;;;26.35;23.75;;;;;;;1.81;100.00;97340.97;2107515;28;20219;-77
2022/02/02 06:54:02;;;;;;;25.80;23.40;;;;;;;1.80;100.00;97349.13;2100703;28;20205;-77
2022/02/02 06:55:12;;;;;;;26.17;23.48;;;;;;;1.80;100.00;97333.34;2107694;28;20166;-77
2022/02/02 06:56:37;;;;;;;29.30;22.77;;;;;;;1.77;100.00;97333.94;2107527;28;20197;-77
2022/02/02 06:58:04;;;;;;;26.05;23.42;;;;;;;1.80;100.00;97334.13;2107840;28;20185;-77
2022/02/02 06:59:22;;;;;;;27.40;23.20;;;;;;;1.81;100.00;97355.94;2108079;28;20527;-77
2022/02/02 07:00:35;;;;;;;25.25;22.67;;;;;;;1.82;100.00;97347.00;2107280;28;20204;-76
2022/02/02 07:01:55;;;;;;;25.50;23.00;;;;;;;1.86;100.00;97340.13;2100546;28;20202;-77
2022/02/02 07:03:22;;;;;;;26.08;23.58;;;;;;;1.91;100.00;97361.91;2107189;28;20288;-76
2022/02/02 07:04:48;;;;;;;25.38;22.70;;;;;;;1.89;100.00;97358.75;2102303;28;20304;-77
2022/02/02 07:06:03;;;;;;;25.35;22.75;;;;;;;1.85;100.00;97356.97;2107830;28;20174;-76
2022/02/02 07:07:18;;;;;;;26.48;24.13;;;;;;;1.85;100.00;97351.72;2107853;28;20202;-77
2022/02/02 07:08:35;;;;;;;29.10;24.08;;;;;;;1.86;100.00;97358.53;2107217;28;20193;-76
2022/02/02 07:09:57;;;;;;;26.75;24.05;;;;;;;1.84;100.00;97350.16;2101443;28;20202;-77
2022/02/02 07:11:13;;;;;;;26.75;23.95;;;;;;;1.85;100.00;97351.72;2101902;28;20292;-77
2022/02/02 07:12:26;;;;;;;25.70;23.20;;;;;;;1.84;100.00;97348.31;2107482;28;20174;-77
2022/02/02 07:13:43;;;;;;;25.80;23.17;;;;;;;1.83;100.00;97338.84;2107513;28;20780;-77
2022/02/02 07:15:12;;;;;;;25.55;23.13;;;;;;;1.84;100.00;97350.16;2107508;28;20169;-77
2022/02/02 07:16:29;;;;;;;28.63;23.17;;;;;;;1.83;100.00;97364.38;2107934;28;20219;-77
2022/02/02 07:17:47;;;;;;;26.45;23.90;;;;;;;1.83;100.00;97367.78;2107136;28;20714;-77
2022/02/02 07:19:00;;;;;;;25.42;23.02;;;;;;;1.85;100.00;97372.75;2101206;28;20271;-77
2022/02/02 07:20:14;;;;;;;25.00;22.75;;;;;;;1.87;100.00;97368.00;2107462;28;20174;-77
2022/02/02 07:21:26;;;;;;;25.55;22.83;;;;;;;1.85;100.00;97356.97;2104343;28;20221;-77
2022/02/02 07:22:59;;;;;;;27.05;24.10;;;;;;;1.87;100.00;97386.41;2098743;28;20202;-77
2022/02/02 07:24:20;;;;;;;26.25;23.85;;;;;;;1.83;100.00;97377.50;2094599;28;20259;-77
2022/02/02 07:25:40;;;;;;;29.83;24.30;;;;;;;1.82;100.00;97375.91;2093338;28;20203;-77
2022/02/02 07:27:24;;;;;;;26.58;23.73;;;;;;;1.82;100.00;97384.59;2099281;28;20190;-77
2022/02/02 07:28:33;;;;;;;26.73;23.90;;;;;;;1.82;100.00;97370.66;2099706;28;20621;-76
2022/02/02 07:29:47;;;;;;;27.30;24.50;;;;;;;1.86;100.00;97380.34;2099239;28;20262;-77
2022/02/02 07:31:01;;;;;;;26.40;23.77;;;;;;;1.89;100.00;97386.88;2098092;28;20198;-77
2022/02/02 07:32:10;;;;;;;26.25;23.50;;;;;;;1.91;100.00;97372.41;2099084;28;20277;-77
2022/02/02 07:33:19;;;;;;;28.33;23.08;;;;;;;1.90;100.00;97391.09;2099324;28;20548;-77
2022/02/02 07:34:39;;;;;;;25.30;22.90;;;;;;;1.91;100.00;97387.38;2099650;28;20182;-77
2022/02/02 07:37:03;;;;;;;26.83;24.15;;;;;;;1.95;100.00;97377.88;2095672;28;20234;-77
2022/02/02 07:38:09;;;;;;;27.25;24.70;;;;;;;1.94;100.00;97392.88;2098960;28;20206;-77
2022/02/02 07:39:13;;;;;;;25.55;23.23;;;;;;;1.95;100.00;97380.53;2098606;28;20748;-77
2022/02/02 07:40:19;;;;;;;25.98;23.45;;;;;;;1.97;100.00;97384.41;2091216;28;20233;-77
2022/02/02 07:41:26;;;;;;;25.35;22.83;;;;;;;1.98;100.00;97382.56;2090776;28;20540;-76
2022/02/02 07:42:29;;;;;;;25.20;22.73;;;;;;;2.01;100.00;97384.66;2098838;28;20182;-74
2022/02/02 07:43:32;;;;;;;26.17;23.70;;;;;;;2.06;100.00;97378.53;2098600;28;20214;-76
2022/02/02 07:44:40;;;;;;;26.25;23.70;;;;;;;2.08;100.00;97386.94;2098606;28;20221;-75
2022/02/02 07:45:42;;;;;;;26.48;23.55;;;;;;;2.09;100.00;97381.41;2099217;28;20231;-77
2022/02/02 07:46:46;;;;;;;27.05;24.27;;;;;;;2.09;100.00;97399.03;2097618;28;20198;-77
2022/02/02 07:47:51;;;;;;;26.55;23.98;;;;;;;2.07;100.00;97395.88;2098182;28;20202;-77
2022/02/02 07:48:53;;;;;;;28.13;25.08;;;;;;;2.05;100.00;97372.50;2098467;28;20555;-77
2022/02/02 07:49:57;;;;;;;27.50;24.92;;;;;;;2.02;100.00;97375.72;2098656;28;20194;-77
2022/02/02 07:51:00;;;;;;;27.17;24.63;;;;;;;2.00;100.00;97377.84;2099406;28;20205;-77
2022/02/02 07:52:04;;;;;;;27.35;24.25;;;;;;;2.00;100.00;97375.22;2107017;28;20583;-77
2022/02/02 07:53:10;;;;;;;26.00;23.30;;;;;;;2.01;100.00;97382.03;2107468;28;20692;-77
2022/02/02 07:54:18;;;;;;;27.38;24.58;;;;;;;2.06;100.00;97374.06;2107179;28;20579;-78
2022/02/02 07:55:25;;;;;;;26.40;23.85;;;;;;;2.05;100.00;97377.75;2107067;28;20196;-77
2022/02/02 07:56:31;;;;;;;28.63;25.58;;;;;;;2.10;100.00;97384.81;2099304;28;20216;-78
2022/02/02 07:57:36;;;;;;;27.17;24.20;;;;;;;2.07;100.00;97380.09;2107330;28;20547;-77
2022/02/02 07:58:41;;;;;;;30.45;24.42;;;;;;;2.10;100.00;97375.09;2107530;28;20645;-78